Time;durP1;ratioP1;P1;durP2;ratioP2;P2;SDS_P1;SDS_P2;PMS_P1;PMS_P2;Temp;Humidity;BMP_temperature;BMP_pressure;BME280_temperature;BME280_humidity;BME280_pressure;Samples;Min_cycle;Max_cycle;Signal;HPM_P1;HPM_P2
2022/03/22 06:41:04;;;;;;;19.20;11.70;;;;;;;;;;5098581;23;20039;-82
2022/03/22 06:43:31;;;;;;;19.88;11.68;;;;;;;;;;4952657;28;20055;-82
2022/03/22 06:45:57;;;;;;;24.48;11.57;;;;;;;;;;4957966;28;20586;-81
2022/03/22 06:48:24;;;;;;;21.85;11.57;;;;;;;;;;4950728;28;20055;-82
2022/03/22 06:50:51;;;;;;;22.35;11.43;;;;;;;;;;4948981;28;20051;-82
2022/03/22 06:53:18;;;;;;;20.90;11.02;;;;;;;;;;4954924;28;20040;-81
2022/03/22 06:55:46;;;;;;;22.08;11.85;;;;;;;;;;4957302;28;20097;-82
2022/03/22 06:58:14;;;;;;;20.08;12.02;;;;;;;;;;4951840;28;20049;-82
2022/03/22 07:00:41;;;;;;;32.65;11.98;;;;;;;;;;4952052;28;20053;-81
2022/03/22 07:03:08;;;;;;;21.30;11.50;;;;;;;;;;4962360;28;20053;-82
2022/03/22 07:05:35;;;;;;;22.58;12.15;;;;;;;;;;4949418;28;20098;-81
2022/03/22 07:08:02;;;;;;;26.80;12.35;;;;;;;;;;4949994;28;20043;-81
2022/03/22 07:10:30;;;;;;;22.65;11.60;;;;;;;;;;4948278;28;20047;-81
2022/03/22 07:13:04;;;;;;;20.80;11.48;;;;;;;;;;4951212;28;20141;-82
2022/03/22 07:15:35;;;;;;;23.85;11.48;;;;;;;;;;4950152;28;20137;-82
2022/03/22 07:18:08;;;;;;;18.95;10.85;;;;;;;;;;4950852;28;20058;-83
2022/03/22 07:20:36;;;;;;;32.22;12.00;;;;;;;;;;4947347;28;20046;-82
2022/03/22 07:23:04;;;;;;;21.27;11.20;;;;;;;;;;4951152;28;20058;-80
2022/03/22 07:25:32;;;;;;;19.10;10.75;;;;;;;;;;4952390;28;20467;-80
2022/03/22 07:28:00;;;;;;;;;;;;;;;;;;4953259;28;20063;-82
2022/03/22 07:30:27;;;;;;;20.75;11.73;;;;;;;;;;4955371;28;19926;-80
2022/03/22 07:32:55;;;;;;;21.25;10.98;;;;;;;;;;4951270;28;20136;-82
2022/03/22 07:35:22;;;;;;;22.25;10.68;;;;;;;;;;4950727;28;20074;-84
2022/03/22 07:37:49;;;;;;;27.88;11.68;;;;;;;;;;4950436;28;20052;-83
2022/03/22 07:40:16;;;;;;;20.60;10.90;;;;;;;;;;4954155;28;20059;-83
2022/03/22 07:42:43;;;;;;;38.25;11.35;;;;;;;;;;4951426;28;20051;-82
2022/03/22 07:45:10;;;;;;;17.17;9.98;;;;;;;;;;4951532;28;20039;-83
2022/03/22 07:47:38;;;;;;;22.05;12.07;;;;;;;;;;4951814;28;20058;-83
2022/03/22 07:53:05;;;;;;;20.63;11.07;;;;;;;;;;4950315;28;20043;-83
2022/03/22 07:55:39;;;;;;;19.00;10.32;;;;;;;;;;4951840;28;20047;-82
2022/03/22 07:58:06;;;;;;;17.50;10.18;;;;;;;;;;4950529;28;20453;-83
2022/03/22 08:00:35;;;;;;;18.52;10.05;;;;;;;;;;4953163;28;20051;-84
2022/03/22 08:03:03;;;;;;;15.73;10.23;;;;;;;;;;4951472;28;20047;-84
2022/03/22 08:05:34;;;;;;;17.30;10.82;;;;;;;;;;4950719;28;20075;-83
2022/03/22 08:08:02;;;;;;;16.63;10.88;;;;;;;;;;4951550;28;20054;-83
2022/03/22 08:10:49;;;;;;;17.00;10.23;;;;;;;;;;4949682;28;20071;-85
2022/03/22 08:13:16;;;;;;;20.13;11.07;;;;;;;;;;4958990;28;20154;-84
2022/03/22 08:15:43;;;;;;;13.65;9.77;;;;;;;;;;4952263;28;20055;-84
2022/03/22 08:18:10;;;;;;;31.15;11.13;;;;;;;;;;4951762;28;20055;-84
2022/03/22 08:20:38;;;;;;;15.70;10.50;;;;;;;;;;4950060;28;20496;-83
2022/03/22 08:23:06;;;;;;;17.90;10.05;;;;;;;;;;4949930;28;20578;-83
2022/03/22 08:25:37;;;;;;;16.42;10.70;;;;;;;;;;4949711;28;20130;-83
2022/03/22 08:28:07;;;;;;;17.55;10.75;;;;;;;;;;4948281;28;20040;-82
2022/03/22 08:30:35;;;;;;;18.13;9.70;;;;;;;;;;4950674;28;20054;-84
2022/03/22 08:33:07;;;;;;;18.10;10.35;;;;;;;;;;4950371;28;20459;-84
2022/03/22 08:35:34;;;;;;;16.27;9.85;;;;;;;;;;4950647;28;20125;-84
2022/03/22 08:38:02;;;;;;;17.95;9.70;;;;;;;;;;4950693;28;20054;-83
2022/03/22 08:40:29;;;;;;;18.88;9.55;;;;;;;;;;4949725;28;20050;-83
2022/03/22 08:42:57;;;;;;;15.88;9.85;;;;;;;;;;4941629;28;20043;-84
2022/03/22 08:45:25;;;;;;;19.05;9.70;;;;;;;;;;4949151;28;20067;-84
2022/03/22 08:47:53;;;;;;;20.67;9.77;;;;;;;;;;4947413;28;20051;-83
2022/03/22 08:50:25;;;;;;;15.98;8.88;;;;;;;;;;4947527;28;20039;-83
2022/03/22 08:52:56;;;;;;;18.42;10.07;;;;;;;;;;4949616;28;20098;-83
2022/03/22 08:55:24;;;;;;;17.45;9.48;;;;;;;;;;4949651;28;20387;-83
2022/03/22 08:57:53;;;;;;;19.85;9.85;;;;;;;;;;4950721;28;20047;-83
2022/03/22 09:00:21;;;;;;;17.02;9.00;;;;;;;;;;4952060;28;20046;-84
2022/03/22 09:02:49;;;;;;;17.10;9.50;;;;;;;;;;4947291;28;20393;-84
2022/03/22 09:08:05;;;;;;;16.05;8.32;;;;;;;;;;4946949;28;20058;-84
2022/03/22 09:10:34;;;;;;;15.60;8.25;;;;;;;;;;4947161;28;20604;-85
2022/03/22 09:13:01;;;;;;;18.77;8.48;;;;;;;;;;4950841;28;20067;-84
2022/03/22 09:15:29;;;;;;;17.08;9.27;;;;;;;;;;4946408;28;20591;-83
2022/03/22 09:17:58;;;;;;;20.33;8.77;;;;;;;;;;4946854;28;20070;-85
2022/03/22 09:20:29;;;;;;;21.23;10.32;;;;;;;;;;4946281;28;20356;-83
2022/03/22 09:22:56;;;;;;;19.48;8.88;;;;;;;;;;4947219;28;20047;-84
2022/03/22 09:25:22;;;;;;;18.63;8.90;;;;;;;;;;4945073;28;20118;-84
2022/03/22 09:27:50;;;;;;;17.05;8.93;;;;;;;;;;4947263;28;20201;-85
2022/03/22 09:30:17;;;;;;;15.43;8.05;;;;;;;;;;4947502;28;20047;-83
2022/03/22 09:32:44;;;;;;;17.38;8.43;;;;;;;;;;4947216;28;20079;-84
2022/03/22 09:35:13;;;;;;;20.98;8.88;;;;;;;;;;4947085;28;20054;-83
2022/03/22 09:37:42;;;;;;;17.85;8.95;;;;;;;;;;4945568;28;20047;-83
2022/03/22 09:40:13;;;;;;;;;;;;;;;;;;4947594;28;20493;-83
2022/03/22 09:42:45;;;;;;;18.02;8.30;;;;;;;;;;4947384;28;20007;-84
2022/03/22 09:45:14;;;;;;;17.80;8.73;;;;;;;;;;4947283;28;20093;-83
2022/03/22 09:47:42;;;;;;;15.40;8.38;;;;;;;;;;4947897;28;20118;-84
2022/03/22 09:50:10;;;;;;;17.90;9.10;;;;;;;;;;4946537;28;20055;-83
2022/03/22 09:52:38;;;;;;;12.15;7.57;;;;;;;;;;4946065;28;20086;-85
2022/03/22 09:55:09;;;;;;;17.48;8.23;;;;;;;;;;4947360;28;20055;-83
2022/03/22 09:57:38;;;;;;;14.75;8.88;;;;;;;;;;4945802;28;20512;-85
2022/03/22 10:00:07;;;;;;;16.92;8.60;;;;;;;;;;4945584;28;20125;-83
2022/03/22 10:02:35;;;;;;;18.10;9.30;;;;;;;;;;4946039;28;20047;-83
2022/03/22 10:05:03;;;;;;;19.08;7.95;;;;;;;;;;4946378;28;20079;-83
2022/03/22 10:07:30;;;;;;;16.08;8.38;;;;;;;;;;4946729;28;20055;-84
2022/03/22 10:10:04;;;;;;;16.90;8.48;;;;;;;;;;4945835;28;20516;-84
2022/03/22 10:12:33;;;;;;;15.48;8.02;;;;;;;;;;4952665;28;20125;-84
2022/03/22 10:15:12;;;;;;;14.25;7.72;;;;;;;;;;4946959;28;20051;-84
2022/03/22 10:17:40;;;;;;;16.83;8.30;;;;;;;;;;4944968;28;20074;-85
2022/03/22 10:20:08;;;;;;;16.08;8.88;;;;;;;;;;4945261;28;20110;-84
2022/03/22 10:22:36;;;;;;;13.45;7.30;;;;;;;;;;4946222;28;20092;-87
2022/03/22 10:25:07;;;;;;;16.50;7.53;;;;;;;;;;4946578;28;20051;-87
2022/03/22 10:27:36;;;;;;;20.40;8.98;;;;;;;;;;4942934;28;20047;-86
2022/03/22 10:30:23;;;;;;;;;;;;;;;;;;4950339;28;20223;-86
2022/03/22 10:32:53;;;;;;;17.05;7.57;;;;;;;;;;4946486;28;19973;-88
2022/03/22 10:35:25;;;;;;;21.00;8.38;;;;;;;;;;4946469;28;20209;-86
2022/03/22 10:37:54;;;;;;;19.27;8.23;;;;;;;;;;4946936;28;20535;-86
2022/03/22 10:40:30;;;;;;;;;;;;;;;;;;4946816;28;20175;-87
2022/03/22 10:43:07;;;;;;;18.20;8.32;;;;;;;;;;4946859;28;19977;-88
2022/03/22 10:45:47;;;;;;;18.23;8.45;;;;;;;;;;4946343;28;20102;-88
2022/03/22 10:48:16;;;;;;;17.38;8.88;;;;;;;;;;4946618;28;20047;-88
2022/03/22 10:50:49;;;;;;;18.52;9.10;;;;;;;;;;4940956;28;20051;-87
2022/03/22 10:53:19;;;;;;;18.98;8.48;;;;;;;;;;4937483;28;20535;-87
2022/03/22 10:55:46;;;;;;;17.05;8.35;;;;;;;;;;4946325;28;20106;-86
2022/03/22 10:58:15;;;;;;;21.40;8.70;;;;;;;;;;4945540;28;20447;-85
2022/03/22 11:00:44;;;;;;;22.73;9.05;;;;;;;;;;4946745;28;20113;-86
2022/03/22 11:03:11;;;;;;;;;;;;;;;;;;4946766;28;20062;-85
2022/03/22 11:05:45;;;;;;;23.40;8.45;;;;;;;;;;4940497;28;20247;-85
2022/03/22 11:08:12;;;;;;;23.23;9.48;;;;;;;;;;4943355;28;20588;-85
2022/03/22 11:10:42;;;;;;;17.90;8.75;;;;;;;;;;4944448;28;20118;-84
2022/03/22 11:13:09;;;;;;;18.55;8.25;;;;;;;;;;4948628;28;20047;-84
2022/03/22 11:15:41;;;;;;;20.50;8.40;;;;;;;;;;4946341;28;20114;-84
2022/03/22 11:18:10;;;;;;;19.77;8.80;;;;;;;;;;4944129;28;20114;-85
2022/03/22 11:20:48;;;;;;;20.33;8.43;;;;;;;;;;4945905;28;20110;-84
2022/03/22 11:23:18;;;;;;;20.08;8.88;;;;;;;;;;4944072;28;20544;-85
2022/03/22 11:25:45;;;;;;;16.10;8.50;;;;;;;;;;4946023;28;20520;-88
2022/03/22 11:28:18;;;;;;;12.82;7.88;;;;;;;;;;4945721;28;20051;-88
2022/03/22 11:30:46;;;;;;;19.52;8.45;;;;;;;;;;4944698;28;20078;-86
2022/03/22 11:36:15;;;;;;;15.02;7.80;;;;;;;;;;4944524;28;20071;-85
2022/03/22 11:38:44;;;;;;;14.25;8.43;;;;;;;;;;4945858;28;20222;-87
2022/03/22 11:44:17;;;;;;;17.83;7.75;;;;;;;;;;4945227;28;20039;-87
2022/03/22 11:46:45;;;;;;;16.38;7.78;;;;;;;;;;4944399;28;20522;-87
2022/03/22 11:49:17;;;;;;;17.42;8.02;;;;;;;;;;4943154;28;20512;-87
2022/03/22 11:51:58;;;;;;;15.73;7.32;;;;;;;;;;4944911;28;20138;-85
2022/03/22 11:54:28;;;;;;;15.80;8.43;;;;;;;;;;4945698;28;20047;-89
2022/03/22 11:56:59;;;;;;;17.38;7.47;;;;;;;;;;4944879;28;20416;-86
2022/03/22 11:59:28;;;;;;;16.85;8.20;;;;;;;;;;4943274;28;20051;-85
2022/03/22 12:02:00;;;;;;;15.18;7.40;;;;;;;;;;4943534;28;20583;-87
2022/03/22 12:04:37;;;;;;;20.77;8.30;;;;;;;;;;4943168;28;20176;-87
2022/03/22 12:07:05;;;;;;;12.75;7.68;;;;;;;;;;4939117;28;20051;-83
2022/03/22 12:09:34;;;;;;;22.00;8.50;;;;;;;;;;4948968;28;20055;-86
2022/03/22 12:12:01;;;;;;;;;;;;;;;;;;4950529;28;20086;-87
2022/03/22 12:14:30;;;;;;;17.73;7.38;;;;;;;;;;4949328;28;19926;-86
2022/03/22 12:16:56;;;;;;;13.52;7.43;;;;;;;;;;4948367;28;20048;-85
2022/03/22 12:19:27;;;;;;;19.90;8.02;;;;;;;;;;4948588;28;21658;-89
2022/03/22 12:21:55;;;;;;;19.17;8.40;;;;;;;;;;4949132;28;20055;-83
2022/03/22 12:24:23;;;;;;;18.38;7.55;;;;;;;;;;4948721;28;20051;-85
2022/03/22 12:26:51;;;;;;;22.02;7.90;;;;;;;;;;4948391;28;20067;-84
2022/03/22 12:29:18;;;;;;;12.73;7.38;;;;;;;;;;4946629;28;20043;-83
2022/03/22 12:31:50;;;;;;;17.35;7.82;;;;;;;;;;4945545;28;20138;-85
2022/03/22 12:34:18;;;;;;;16.65;8.23;;;;;;;;;;4948162;28;20066;-86
2022/03/22 12:36:45;;;;;;;13.87;7.90;;;;;;;;;;4948737;28;20098;-83
2022/03/22 12:39:12;;;;;;;17.50;8.07;;;;;;;;;;4946722;28;20062;-84
2022/03/22 12:41:39;;;;;;;12.50;7.40;;;;;;;;;;4946310;28;20051;-86
2022/03/22 12:44:06;;;;;;;15.27;7.55;;;;;;;;;;4945180;28;20039;-84
2022/03/22 12:46:33;;;;;;;20.35;8.07;;;;;;;;;;4948055;28;20664;-85
2022/03/22 12:48:59;;;;;;;16.45;8.15;;;;;;;;;;4947500;28;20146;-84
2022/03/22 12:51:26;;;;;;;16.90;8.05;;;;;;;;;;4947163;28;20094;-84
2022/03/22 12:53:53;;;;;;;15.50;7.95;;;;;;;;;;4947711;28;20113;-85
2022/03/22 12:56:21;;;;;;;16.67;8.25;;;;;;;;;;4947856;28;20054;-83
2022/03/22 12:58:49;;;;;;;19.27;9.00;;;;;;;;;;4946483;28;20512;-84
2022/03/22 13:01:16;;;;;;;13.85;8.02;;;;;;;;;;4946926;28;20114;-82
2022/03/22 13:03:45;;;;;;;19.02;8.63;;;;;;;;;;4947198;28;20078;-83
2022/03/22 13:06:12;;;;;;;21.10;8.80;;;;;;;;;;4946738;28;20058;-85
2022/03/22 13:11:27;;;;;;;22.73;7.85;;;;;;;;;;4939226;28;20122;-87
2022/03/22 13:16:41;;;;;;;17.60;7.88;;;;;;;;;;4947602;28;20043;-84
2022/03/22 13:19:12;;;;;;;16.38;7.65;;;;;;;;;;4941372;28;20047;-85
2022/03/22 13:21:39;;;;;;;16.83;7.40;;;;;;;;;;4946055;28;20043;-84
2022/03/22 13:24:10;;;;;;;16.38;7.97;;;;;;;;;;4942304;28;20504;-86
2022/03/22 13:26:39;;;;;;;19.15;7.80;;;;;;;;;;4947509;28;20063;-84
2022/03/22 13:29:25;;;;;;;;;;;;;;;;;;4946657;28;20240;-83
2022/03/22 13:32:04;;;;;;;15.55;7.50;;;;;;;;;;4946078;28;19969;-85
2022/03/22 13:34:34;;;;;;;16.27;7.75;;;;;;;;;;4946131;28;20046;-85
2022/03/22 13:37:16;;;;;;;16.65;7.20;;;;;;;;;;4945612;28;20469;-85
2022/03/22 13:39:52;;;;;;;18.48;7.82;;;;;;;;;;4945135;28;20123;-85
2022/03/22 13:42:20;;;;;;;14.27;7.50;;;;;;;;;;4944052;28;20469;-84
2022/03/22 13:45:00;;;;;;;11.63;6.97;;;;;;;;;;4946811;28;20079;-84
2022/03/22 13:47:36;;;;;;;16.50;8.07;;;;;;;;;;4945579;28;20059;-84
2022/03/22 13:50:15;;;;;;;18.95;8.10;;;;;;;;;;4944272;28;20587;-85
2022/03/22 13:52:44;;;;;;;16.15;7.55;;;;;;;;;;4946487;28;20054;-85
2022/03/22 13:55:21;;;;;;;21.52;7.68;;;;;;;;;;4946507;28;20058;-85
2022/03/22 13:57:50;;;;;;;15.80;7.60;;;;;;;;;;4945626;28;20048;-85
2022/03/22 14:00:40;;;;;;;15.95;7.82;;;;;;;;;;4945718;28;20055;-84
2022/03/22 14:03:12;;;;;;;15.32;6.65;;;;;;;;;;4946620;28;20480;-86
2022/03/22 14:05:39;;;;;;;17.75;7.05;;;;;;;;;;4945841;28;20055;-85
2022/03/22 14:08:08;;;;;;;15.23;6.88;;;;;;;;;;4946374;28;20055;-86
2022/03/22 14:10:36;;;;;;;14.25;6.97;;;;;;;;;;4946045;28;20053;-86
2022/03/22 14:13:03;;;;;;;17.13;6.30;;;;;;;;;;4949773;28;20055;-84
2022/03/22 14:15:30;;;;;;;18.93;7.67;;;;;;;;;;4946967;28;20047;-85
2022/03/22 14:18:00;;;;;;;27.33;7.68;;;;;;;;;;4944884;28;20047;-86
2022/03/22 14:20:27;;;;;;;17.42;6.72;;;;;;;;;;4945581;28;20153;-84
2022/03/22 14:22:56;;;;;;;15.52;7.18;;;;;;;;;;4941502;28;20691;-84
2022/03/22 14:25:34;;;;;;;15.15;7.00;;;;;;;;;;4946466;28;20073;-84
2022/03/22 14:28:02;;;;;;;15.32;7.32;;;;;;;;;;4941611;28;20567;-85
2022/03/22 14:30:30;;;;;;;17.25;7.43;;;;;;;;;;4946687;28;20423;-86
2022/03/22 14:33:00;;;;;;;14.57;7.13;;;;;;;;;;4944458;28;20417;-85
2022/03/22 14:35:49;;;;;;;14.43;7.15;;;;;;;;;;4944430;28;20051;-85
2022/03/22 14:38:17;;;;;;;15.02;7.10;;;;;;;;;;4945512;28;20452;-85
2022/03/22 14:40:45;;;;;;;14.10;6.67;;;;;;;;;;4943561;28;20055;-85
2022/03/22 14:43:12;;;;;;;15.30;7.30;;;;;;;;;;4945545;28;20317;-85
2022/03/22 14:45:48;;;;;;;13.13;7.07;;;;;;;;;;4945473;28;20074;-85
2022/03/22 14:48:19;;;;;;;16.30;7.43;;;;;;;;;;4939460;28;20058;-85
2022/03/22 14:50:47;;;;;;;17.27;7.45;;;;;;;;;;4944200;28;20118;-85
2022/03/22 14:59:02;;;;;;;13.00;6.60;;;;;;;;;;4902505;29;20062;-85
2022/03/22 15:01:31;;;;;;;14.00;6.60;;;;;;;;;;4905138;29;20109;-84
2022/03/22 15:04:01;;;;;;;13.70;6.30;;;;;;;;;;4902291;29;20487;-84
2022/03/22 15:06:29;;;;;;;13.90;6.70;;;;;;;;;;4877634;29;20051;-83
2022/03/22 15:08:56;;;;;;;12.85;6.95;;;;;;;;;;4905686;29;20127;-83
2022/03/22 15:11:24;;;;;;;12.88;6.53;;;;;;;;;;4903212;29;20052;-84
2022/03/22 15:13:51;;;;;;;12.60;6.85;;;;;;;;;;4904028;29;20056;-84
2022/03/22 15:16:19;;;;;;;14.00;7.05;;;;;;;;;;4903510;29;20108;-83
2022/03/22 15:18:46;;;;;;;12.48;6.97;;;;;;;;;;4904618;29;20056;-84
2022/03/22 15:21:12;;;;;;;12.68;7.38;;;;;;;;;;4905588;29;20573;-84
2022/03/22 15:23:39;;;;;;;13.43;7.20;;;;;;;;;;4902533;29;20056;-85
2022/03/22 15:26:09;;;;;;;14.63;6.80;;;;;;;;;;4903766;29;20353;-84
2022/03/22 15:28:36;;;;;;;;;;;;;;;;;;4904590;29;20048;-86
2022/03/22 15:31:04;;;;;;;13.55;7.30;;;;;;;;;;4889566;29;19952;-84
2022/03/22 15:33:32;;;;;;;13.30;7.70;;;;;;;;;;4925577;28;20468;-85
2022/03/22 15:35:59;;;;;;;13.60;7.43;;;;;;;;;;4941872;28;20060;-85
2022/03/22 15:38:27;;;;;;;20.60;7.50;;;;;;;;;;4939546;28;20051;-85
2022/03/22 15:40:54;;;;;;;16.90;7.75;;;;;;;;;;4940984;28;20507;-85
2022/03/22 15:43:22;;;;;;;16.23;8.32;;;;;;;;;;4935843;28;20414;-84
2022/03/22 15:45:52;;;;;;;16.35;8.50;;;;;;;;;;4942380;28;20051;-85
2022/03/22 15:48:19;;;;;;;17.88;9.00;;;;;;;;;;4948056;28;20055;-86
2022/03/22 15:50:45;;;;;;;17.02;8.00;;;;;;;;;;4949941;28;20051;-86
2022/03/22 15:53:12;;;;;;;14.85;8.02;;;;;;;;;;4947533;28;20054;-84
2022/03/22 15:55:39;;;;;;;18.35;8.20;;;;;;;;;;4945974;28;20125;-87
2022/03/22 15:58:07;;;;;;;14.05;8.05;;;;;;;;;;4948824;28;20054;-86
2022/03/22 16:00:37;;;;;;;13.77;8.30;;;;;;;;;;4947601;28;20051;-86
2022/03/22 16:03:05;;;;;;;18.35;8.27;;;;;;;;;;4948467;28;20059;-83
2022/03/22 16:05:33;;;;;;;16.63;7.83;;;;;;;;;;4945314;28;20423;-85
2022/03/22 16:08:01;;;;;;;14.25;7.45;;;;;;;;;;4948656;28;20428;-85
2022/03/22 16:10:28;;;;;;;13.13;7.28;;;;;;;;;;4942956;28;20047;-89
2022/03/22 16:12:57;;;;;;;13.00;6.85;;;;;;;;;;4951425;28;20047;-89
2022/03/22 16:15:27;;;;;;;15.38;7.38;;;;;;;;;;4947581;28;20055;-91
2022/03/22 16:17:57;;;;;;;12.63;7.78;;;;;;;;;;4940798;28;20511;-83
2022/03/22 16:20:25;;;;;;;12.18;6.95;;;;;;;;;;4945958;28;20079;-83
2022/03/22 16:22:52;;;;;;;12.32;6.90;;;;;;;;;;4950058;28;20058;-82
2022/03/22 16:25:26;;;;;;;17.52;7.53;;;;;;;;;;4951309;28;20121;-83
2022/03/22 16:27:54;;;;;;;13.50;8.00;;;;;;;;;;4940275;28;20051;-84
2022/03/22 16:30:23;;;;;;;19.10;8.37;;;;;;;;;;4946566;28;20047;-83
2022/03/22 16:38:21;;;;;;;12.98;8.35;;;;;;;;;;4949155;28;20106;-86
2022/03/22 16:40:49;;;;;;;14.10;8.77;;;;;;;;;;4949967;28;20047;-84
2022/03/22 16:43:18;;;;;;;14.65;7.85;;;;;;;;;;4944030;28;20595;-87
2022/03/22 16:45:46;;;;;;;17.98;9.05;;;;;;;;;;4949124;28;20201;-84
2022/03/22 16:48:15;;;;;;;16.97;8.77;;;;;;;;;;4946774;28;20047;-85
2022/03/22 16:50:43;;;;;;;;;;;;;;;;;;4950134;28;20299;-85
2022/03/22 16:53:13;;;;;;;14.60;8.10;;;;;;;;;;4947352;28;19926;-83
2022/03/22 16:55:40;;;;;;;14.80;8.02;;;;;;;;;;4949085;28;20527;-86
2022/03/22 16:58:12;;;;;;;12.65;7.43;;;;;;;;;;4948728;28;20047;-86
2022/03/22 17:00:39;;;;;;;21.73;8.50;;;;;;;;;;4945263;28;20142;-84
2022/03/22 17:03:05;;;;;;;15.50;7.60;;;;;;;;;;4941207;28;20050;-84
2022/03/22 17:05:33;;;;;;;17.83;8.55;;;;;;;;;;4938651;28;20079;-86
2022/03/22 17:07:59;;;;;;;16.60;7.70;;;;;;;;;;4944675;28;20110;-85
2022/03/22 17:10:27;;;;;;;21.33;8.55;;;;;;;;;;4948351;28;20058;-87
2022/03/22 17:12:58;;;;;;;16.38;7.80;;;;;;;;;;4949887;28;20126;-86
2022/03/22 17:15:28;;;;;;;17.88;7.20;;;;;;;;;;4949124;28;20050;-85
2022/03/22 17:17:56;;;;;;;17.10;7.55;;;;;;;;;;4949584;28;20062;-84
2022/03/22 17:20:23;;;;;;;13.13;7.68;;;;;;;;;;4947253;28;20483;-83
2022/03/22 17:22:51;;;;;;;14.95;7.65;;;;;;;;;;4949227;28;20051;-84
2022/03/22 17:25:19;;;;;;;19.98;7.60;;;;;;;;;;4948000;28;20480;-85
2022/03/22 17:27:48;;;;;;;17.85;8.15;;;;;;;;;;4947519;28;20691;-84
2022/03/22 17:30:16;;;;;;;13.65;8.02;;;;;;;;;;4948013;28;20047;-84
2022/03/22 17:32:46;;;;;;;12.82;7.65;;;;;;;;;;4947792;28;20062;-85
2022/03/22 17:35:14;;;;;;;12.63;7.30;;;;;;;;;;4939881;28;20047;-87
2022/03/22 17:37:42;;;;;;;15.43;7.65;;;;;;;;;;4946527;28;20050;-85
2022/03/22 17:40:11;;;;;;;18.00;7.72;;;;;;;;;;4945766;28;20058;-85
2022/03/22 17:42:39;;;;;;;15.15;8.15;;;;;;;;;;4946783;28;20143;-84
2022/03/22 17:45:07;;;;;;;16.85;7.35;;;;;;;;;;4938045;28;20043;-82
2022/03/22 17:47:35;;;;;;;14.82;7.68;;;;;;;;;;4937922;28;20055;-82
2022/03/22 17:50:04;;;;;;;14.75;7.10;;;;;;;;;;4937179;28;20055;-81
2022/03/22 17:52:31;;;;;;;18.40;7.82;;;;;;;;;;4935089;28;20106;-79
2022/03/22 17:54:57;;;;;;;13.27;6.57;;;;;;;;;;4941823;28;20510;-81
2022/03/22 17:57:25;;;;;;;12.38;7.97;;;;;;;;;;4948024;28;20534;-80
2022/03/22 17:59:53;;;;;;;21.10;7.60;;;;;;;;;;4942315;28;20368;-80
2022/03/22 18:02:20;;;;;;;19.35;7.53;;;;;;;;;;4934672;28;20497;-81
2022/03/22 18:04:47;;;;;;;14.30;7.85;;;;;;;;;;4937472;28;20648;-83
2022/03/22 18:07:16;;;;;;;13.25;7.13;;;;;;;;;;4935726;28;20405;-83
2022/03/22 18:09:43;;;;;;;17.15;8.10;;;;;;;;;;4937074;28;20587;-81
2022/03/22 18:12:10;;;;;;;13.82;7.00;;;;;;;;;;4938030;28;20058;-82
2022/03/22 18:14:37;;;;;;;14.30;7.93;;;;;;;;;;4945037;28;20129;-84
2022/03/22 18:17:04;;;;;;;16.38;8.35;;;;;;;;;;4937909;28;20051;-83
2022/03/22 18:19:31;;;;;;;20.73;8.38;;;;;;;;;;4950998;28;20043;-82
2022/03/22 18:21:58;;;;;;;15.38;8.15;;;;;;;;;;4942464;28;20158;-83
2022/03/22 18:24:26;;;;;;;14.70;7.78;;;;;;;;;;4944750;28;20059;-84
2022/03/22 18:26:54;;;;;;;16.60;8.52;;;;;;;;;;4945343;28;20058;-84
2022/03/22 18:29:21;;;;;;;15.73;8.68;;;;;;;;;;4946024;28;20504;-83
2022/03/22 18:31:48;;;;;;;17.95;8.48;;;;;;;;;;4945376;28;20110;-83
2022/03/22 18:34:15;;;;;;;19.85;7.30;;;;;;;;;;4946147;28;20098;-83
2022/03/22 18:36:42;;;;;;;14.30;7.90;;;;;;;;;;4946787;28;20051;-84
2022/03/22 18:39:15;;;;;;;16.90;7.35;;;;;;;;;;4946295;28;20059;-85
2022/03/22 18:41:43;;;;;;;15.95;8.15;;;;;;;;;;4946708;28;20524;-84
2022/03/22 18:44:11;;;;;;;21.00;8.40;;;;;;;;;;4945329;28;20061;-85
2022/03/22 18:46:38;;;;;;;14.55;7.53;;;;;;;;;;4938615;28;20062;-84
2022/03/22 18:49:05;;;;;;;16.20;7.63;;;;;;;;;;4935673;28;20055;-82
2022/03/22 18:51:34;;;;;;;18.60;7.63;;;;;;;;;;4946908;28;20860;-82
2022/03/22 18:54:02;;;;;;;14.38;8.60;;;;;;;;;;4947266;28;20579;-84
2022/03/22 18:56:30;;;;;;;18.13;8.88;;;;;;;;;;4944386;28;20059;-84
2022/03/22 18:58:57;;;;;;;16.23;7.88;;;;;;;;;;4946439;28;20193;-82
2022/03/22 19:01:24;;;;;;;20.55;7.80;;;;;;;;;;4950042;28;20050;-85
2022/03/22 19:03:52;;;;;;;16.35;8.10;;;;;;;;;;4946335;28;20055;-84
2022/03/22 19:06:22;;;;;;;15.32;8.18;;;;;;;;;;4947441;28;20574;-82
2022/03/22 19:08:50;;;;;;;14.88;7.72;;;;;;;;;;4947148;28;20047;-84
2022/03/22 19:11:16;;;;;;;12.73;7.50;;;;;;;;;;4946434;28;20050;-84
2022/03/22 19:13:44;;;;;;;15.10;7.93;;;;;;;;;;4947345;28;20150;-83
2022/03/22 19:18:57;;;;;;;15.07;7.10;;;;;;;;;;4948204;28;20056;-87
2022/03/22 19:21:25;;;;;;;14.50;7.22;;;;;;;;;;4950878;28;20114;-83
2022/03/22 19:23:53;;;;;;;16.95;8.15;;;;;;;;;;4950100;28;20051;-83
2022/03/22 19:26:19;;;;;;;15.88;8.07;;;;;;;;;;4954167;28;20040;-82
2022/03/22 19:28:47;;;;;;;16.77;7.60;;;;;;;;;;4949257;28;20059;-84
2022/03/22 19:34:04;;;;;;;16.13;7.13;;;;;;;;;;4949659;28;20063;-83
2022/03/22 19:36:32;;;;;;;16.70;7.60;;;;;;;;;;4947917;28;20583;-82
2022/03/22 19:38:59;;;;;;;19.05;7.13;;;;;;;;;;4936209;28;20054;-85
2022/03/22 19:41:27;;;;;;;18.52;7.53;;;;;;;;;;4948723;28;20393;-83
2022/03/22 19:43:54;;;;;;;18.07;7.27;;;;;;;;;;4948214;28;20610;-84
2022/03/22 19:46:21;;;;;;;15.35;7.75;;;;;;;;;;4949304;28;20039;-82
2022/03/22 19:48:47;;;;;;;15.10;7.28;;;;;;;;;;4948277;28;20040;-83
2022/03/22 19:51:15;;;;;;;14.35;7.32;;;;;;;;;;4950424;28;20129;-86
2022/03/22 19:53:42;;;;;;;18.20;7.30;;;;;;;;;;4950076;28;20059;-84
2022/03/22 19:56:09;;;;;;;16.85;6.97;;;;;;;;;;4949349;28;20114;-85
2022/03/22 19:58:36;;;;;;;18.80;7.57;;;;;;;;;;4948840;28;20141;-84
2022/03/22 20:01:06;;;;;;;13.85;7.10;;;;;;;;;;4949442;28;21609;-86
2022/03/22 20:03:34;;;;;;;15.57;7.30;;;;;;;;;;4950295;28;20055;-86
2022/03/22 20:06:02;;;;;;;;;;;;;;;;;;4949219;28;20882;-87
2022/03/22 20:08:30;;;;;;;17.45;7.25;;;;;;;;;;4948370;28;19933;-85
2022/03/22 20:10:57;;;;;;;14.93;7.47;;;;;;;;;;4949428;28;20048;-84
2022/03/22 20:13:25;;;;;;;14.32;7.60;;;;;;;;;;4950608;28;20051;-82
2022/03/22 20:15:53;;;;;;;11.75;7.32;;;;;;;;;;4955292;28;20059;-84
2022/03/22 20:18:20;;;;;;;18.15;7.32;;;;;;;;;;4952385;28;20512;-84
2022/03/22 20:20:47;;;;;;;19.15;7.45;;;;;;;;;;4948469;28;20068;-85
2022/03/22 20:23:16;;;;;;;15.05;6.97;;;;;;;;;;4953859;28;20057;-85
2022/03/22 20:25:46;;;;;;;19.63;7.57;;;;;;;;;;4953530;28;20047;-84
2022/03/22 20:28:17;;;;;;;11.73;6.60;;;;;;;;;;4952060;28;20051;-86
2022/03/22 20:30:44;;;;;;;14.10;7.22;;;;;;;;;;4949697;28;20062;-83
2022/03/22 20:33:11;;;;;;;13.25;7.72;;;;;;;;;;4949402;28;20055;-84
2022/03/22 20:35:38;;;;;;;15.38;7.97;;;;;;;;;;4948815;28;20110;-83
2022/03/22 20:38:04;;;;;;;15.35;7.10;;;;;;;;;;4947282;28;20511;-86
2022/03/22 20:40:33;;;;;;;15.88;7.25;;;;;;;;;;4950896;28;20533;-85
2022/03/22 20:43:00;;;;;;;15.18;7.47;;;;;;;;;;4949639;28;20109;-85
2022/03/22 20:45:31;;;;;;;20.92;7.75;;;;;;;;;;4945614;28;20047;-82
2022/03/22 20:47:58;;;;;;;18.67;7.53;;;;;;;;;;4941992;28;20106;-85
2022/03/22 20:50:26;;;;;;;17.33;7.53;;;;;;;;;;4953098;28;20059;-85
2022/03/22 20:52:53;;;;;;;14.07;6.97;;;;;;;;;;4947967;28;20563;-85
2022/03/22 20:55:20;;;;;;;16.00;7.60;;;;;;;;;;4946109;28;20576;-85
2022/03/22 21:00:35;;;;;;;11.60;6.30;;;;;;;;;;4948417;28;20075;-84
2022/03/22 21:03:02;;;;;;;14.25;7.13;;;;;;;;;;4948226;28;20110;-85
2022/03/22 21:05:28;;;;;;;12.60;7.65;;;;;;;;;;4946330;28;20067;-85
2022/03/22 21:07:55;;;;;;;12.98;7.13;;;;;;;;;;4947449;28;20535;-82
2022/03/22 21:10:22;;;;;;;14.18;7.82;;;;;;;;;;4947614;28;20047;-85
2022/03/22 21:12:49;;;;;;;16.35;7.00;;;;;;;;;;4955184;28;20055;-85
2022/03/22 21:15:15;;;;;;;13.00;7.97;;;;;;;;;;4945357;28;20130;-85
2022/03/22 21:17:42;;;;;;;14.00;7.63;;;;;;;;;;4944138;28;20114;-84
2022/03/22 21:20:10;;;;;;;12.52;7.28;;;;;;;;;;4950033;28;20047;-83
2022/03/22 21:22:36;;;;;;;18.00;8.95;;;;;;;;;;4948124;28;20047;-84
2022/03/22 21:25:05;;;;;;;17.33;8.20;;;;;;;;;;4955241;28;20110;-84
2022/03/22 21:27:32;;;;;;;20.42;8.35;;;;;;;;;;4952665;28;20078;-84
2022/03/22 21:29:59;;;;;;;20.45;8.88;;;;;;;;;;4955316;28;20043;-86
2022/03/22 21:32:26;;;;;;;16.23;9.10;;;;;;;;;;4948816;28;20054;-85
2022/03/22 21:34:53;;;;;;;16.42;8.73;;;;;;;;;;4949001;28;20047;-83
2022/03/22 21:37:20;;;;;;;16.42;10.27;;;;;;;;;;4953577;28;20073;-85
2022/03/22 21:39:47;;;;;;;20.23;9.90;;;;;;;;;;4951514;28;20043;-83
2022/03/22 21:42:14;;;;;;;17.50;9.77;;;;;;;;;;4945897;28;20066;-83
2022/03/22 21:44:42;;;;;;;18.35;9.85;;;;;;;;;;4947541;28;20051;-83
2022/03/22 21:47:09;;;;;;;15.73;9.95;;;;;;;;;;4947592;28;20531;-83
2022/03/22 21:49:35;;;;;;;20.92;9.93;;;;;;;;;;4947389;28;20054;-84
2022/03/22 21:52:03;;;;;;;18.52;9.32;;;;;;;;;;4954293;28;20046;-84
2022/03/22 21:54:29;;;;;;;16.10;9.55;;;;;;;;;;4944589;28;20171;-84
2022/03/22 21:56:56;;;;;;;14.60;9.25;;;;;;;;;;4952545;28;20529;-84